WICT2: Wichita River At Wichita Falls, TX

Data processed at Thu Jan 04 2018 23:58


All information presented herein is the property of the government of the United States of America and may be revised or deleted at any time without prior notice.
Dissemination of this information without the expressed written consent of the Public Affairs Office, Tulsa District U.S. Army Corps of Engineers is strictly prohibited.
These data are gathered electronically and, as presented, have not undergone any form of quality control. These data are not guaranteed to be valid or correct.
Go to home page.
Go to station list.

Upstream stations:

Downstream station:
Previous Day
Next Day
Current Day
    
SHEF ID:       WICT2     Wichita Rv at Wichita Falls, TX
STATION TYPE:  

               PRECIP     STAGE  RIV-FLOW  WTR-TEMP   CONDUCT  BAT-LOAD
                   in        ft       cfs         F   umho/cm      volt
              Ccp-Rev   Ccp-Rev   Ccp-Rev   Ccp-Rev   Ccp-Rev   Ccp-Rev
(US/Central)
01/02 00:00      0.00      2.57        30     31.96      5610     12.57
01/02 01:00      0.00      2.57        30     31.78      5613     12.57
01/02 02:00      0.00      2.56        29     31.64      5614     12.49
01/02 03:00      0.00      2.57        30     31.68      5613     12.49
01/02 04:00      0.00      2.57        30     31.80      5606     12.49
01/02 05:00      0.00      2.56        29     31.78      5610     12.49
01/02 06:00      0.00      2.56        29     31.71      5620     12.49
01/02 07:00      0.00      2.56        29     31.69      5629     12.49
01/02 08:00      0.00      2.55        28     31.77      5636     12.49
01/02 09:00      0.00      2.57        30     31.75      5647     12.57
01/02 10:00      0.00      2.63        34     31.71      5655     12.65
01/02 11:00      0.00      2.65        36     31.77      5660     12.89
01/02 12:00      0.00      2.60        32     31.96      5662     13.13
01/02 13:00      0.00      2.59        31     32.18      5644     13.21
01/02 14:00      0.00      2.59        31     32.40      5623     13.29
01/02 15:00      0.00      2.58        30     32.56      5598     13.21
01/02 16:00      0.00      2.58        30     32.70      5578     13.13
01/02 17:00      0.00      2.58        30     32.70      5563     13.05
01/02 18:00      0.00      2.57        30     32.58      5553     12.73
01/02 19:00      0.00      2.57        30     32.36      5549     12.65
01/02 20:00      0.00      2.57        30     32.09      5542     12.65
01/02 21:00      0.00      2.57        30     31.84      5539     12.57
01/02 22:00      0.00      2.56        29     31.66      5539     12.57
01/02 23:00      0.00      2.56        29     31.62      5543     12.49